Portada
METAR-TAF:

METAR-TAF

Aeropuertos :

Moscú-Sheremetyevo, Rusia

Aeropuerto Internacional de Moscú-Sheremétievo

latitud: 55-59N, longitud: 037-30E, altitud: 190 m

Observación

El informe se hizo hace 25 minutos, a las 14:30 UTC
Viento 4 kt del suroeste, variando entre sur y oeste-noroeste
Temperatura -5°C
Humedad 86%
Presión 1023 hPa
Visibilidad 10 km o más
Cielo nuboso a una altura de 800 ft

METAR: UUEE 241430Z 22002MPS 170V290 9999 BKN008 M05/M07 Q1023 R24L/190057 R24R/190057 NOSIG

Hora: 17:55 (14:55 UTC)

Pronóstico

El informe se hizo hace 56 minutos, a las 13:59 UTC
Pronóstico válido del 24 a las 15 UTC al 25 a las 15 UTC
Viento 8 kt del suroeste
Visibilidad 10 km o más
Cielo cubierto a una altura de 800 ft
Evolucionando progresivamente
del 25 a las 02 UTC al 25 a las 04 UTC
Viento 10 kt del sur-sureste

TAF: UUEE 241359Z 2415/2515 22004MPS 9999 OVC008 TXM05/2512Z TNM10/2503Z BECMG 2502/2504 16005MPS

Observaciones y pronósticos meteorológicos de más de 4000 aeropuertos (mensajes METAR y TAF).

Los puntos amarillos y rojos representan las estaciones disponibles.

Ponga el ratón en el punto deseado para ver el nombre de la estación.

Haga clic para ver las observaciones y los pronósticos meteorológicos.

Para cambiar el mapa : haga clic en los botones verdes con una cruz de color negro para hacer un zoom, en el botón verde con un guión para alejar o en las flechas verdes para mapas adyacentes.


METAR-TAF: